createdAt,value
2023-04-21T00:01:02.407Z,10.20
2023-04-21T00:03:33.798Z,10.10
2023-04-21T00:06:01.786Z,9.90
2023-04-21T00:08:29.513Z,9.80
2023-04-21T00:10:57.245Z,9.80
2023-04-21T00:13:25.094Z,9.70
2023-04-21T00:15:52.843Z,9.60
2023-04-21T00:18:21.875Z,9.50
2023-04-21T00:20:49.791Z,9.50
2023-04-21T00:23:17.548Z,9.50
2023-04-21T00:25:45.306Z,9.30
2023-04-21T00:28:13.015Z,9.20
2023-04-21T00:30:40.760Z,9.10
2023-04-21T00:33:08.504Z,9.10
2023-04-21T00:35:37.614Z,9.10
2023-04-21T00:38:05.443Z,9.10
2023-04-21T00:40:33.385Z,9.10
2023-04-21T00:43:01.106Z,9.10
2023-04-21T00:45:28.936Z,9.20
2023-04-21T00:47:56.718Z,9.20
2023-04-21T00:50:24.598Z,9.20
2023-04-21T00:52:54.249Z,9.20
2023-04-21T00:55:22.666Z,9.20
2023-04-21T00:57:51.252Z,9.10
2023-04-21T01:00:19.510Z,9.20
2023-04-21T01:02:47.659Z,9.20
2023-04-21T01:05:16.503Z,9.20
2023-04-21T01:07:44.865Z,9.30
2023-04-21T01:10:14.048Z,9.30
2023-04-21T01:12:46.067Z,9.30
2023-04-21T01:15:14.533Z,9.40
2023-04-21T01:17:42.403Z,9.50
2023-04-21T01:20:13.301Z,9.50
2023-04-21T01:22:44.541Z,9.50
2023-04-21T01:25:12.386Z,9.50
2023-04-21T01:27:40.281Z,9.50
2023-04-21T01:30:09.955Z,9.50
2023-04-21T01:32:37.909Z,9.40
2023-04-21T01:35:06.510Z,9.50
2023-04-21T01:37:35.024Z,9.40
2023-04-21T01:40:06.860Z,9.50
2023-04-21T01:42:37.395Z,9.40
2023-04-21T01:45:05.906Z,9.50
2023-04-21T01:47:34.000Z,9.60
2023-04-21T01:50:01.742Z,9.60
2023-04-21T01:52:29.553Z,9.70
2023-04-21T01:54:57.299Z,9.50
2023-04-21T01:57:26.708Z,9.40
2023-04-21T01:59:54.493Z,9.40
2023-04-21T02:02:22.369Z,9.40
2023-04-21T02:04:50.161Z,9.40
2023-04-21T02:07:17.855Z,9.30
2023-04-21T02:09:46.022Z,9.40
2023-04-21T02:12:13.761Z,9.40
2023-04-21T02:14:42.843Z,9.40
2023-04-21T02:17:10.584Z,9.50
2023-04-21T02:19:38.676Z,9.40
2023-04-21T02:22:07.130Z,9.50
2023-04-21T02:24:34.916Z,9.40
2023-04-21T02:27:02.960Z,9.40
2023-04-21T02:29:30.700Z,9.40
2023-04-21T02:32:07.781Z,9.50
2023-04-21T02:34:45.907Z,9.50
2023-04-21T02:37:13.653Z,9.60
2023-04-21T02:39:41.438Z,9.50
2023-04-21T02:42:10.425Z,9.40
2023-04-21T02:44:39.098Z,9.50
2023-04-21T02:47:08.304Z,9.60
2023-04-21T02:49:36.280Z,9.70
2023-04-21T02:52:03.984Z,9.60
2023-04-21T02:54:31.800Z,9.60
2023-04-21T02:56:59.489Z,9.70
2023-04-21T02:59:27.269Z,9.60
2023-04-21T03:01:54.964Z,9.40
2023-04-21T03:04:25.409Z,9.40
2023-04-21T03:06:53.928Z,9.40
2023-04-21T03:09:21.781Z,9.40
2023-04-21T03:11:49.673Z,9.50
2023-04-21T03:14:17.431Z,9.40
2023-04-21T03:16:45.153Z,9.50
2023-04-21T03:19:12.889Z,9.50
2023-04-21T03:21:41.902Z,9.50
2023-04-21T03:24:09.711Z,9.60
2023-04-21T03:26:37.491Z,9.40
2023-04-21T03:29:05.266Z,9.50
2023-04-21T03:31:33.363Z,9.50
2023-04-21T03:34:01.201Z,9.60
2023-04-21T03:36:28.917Z,9.60
2023-04-21T03:39:05.953Z,9.50
2023-04-21T03:41:40.949Z,9.50
2023-04-21T03:44:08.735Z,9.60
2023-04-21T03:46:36.437Z,9.60
2023-04-21T03:49:04.498Z,9.60
2023-04-21T03:51:33.322Z,9.70
2023-04-21T03:54:02.438Z,9.80
2023-04-21T03:56:30.305Z,9.80
2023-04-21T03:58:58.038Z,9.80
2023-04-21T04:01:25.742Z,9.70
2023-04-21T04:03:53.690Z,9.70
2023-04-21T04:06:21.723Z,9.70
2023-04-21T04:08:49.462Z,9.80
2023-04-21T04:11:18.558Z,9.80
2023-04-21T04:13:46.271Z,9.90
2023-04-21T04:16:14.034Z,9.90
2023-04-21T04:18:42.031Z,10.00
2023-04-21T04:21:09.937Z,9.90
2023-04-21T04:23:37.715Z,9.90
2023-04-21T04:26:05.687Z,9.80
2023-04-21T04:28:34.902Z,9.90
2023-04-21T04:31:03.027Z,9.60
2023-04-21T04:33:30.796Z,9.50
2023-04-21T04:35:59.596Z,9.60
2023-04-21T04:38:28.373Z,9.60
2023-04-21T04:40:57.525Z,9.60
2023-04-21T04:43:26.285Z,9.70
2023-04-21T04:45:55.334Z,9.80
2023-04-21T04:48:23.066Z,9.80
2023-04-21T04:50:50.836Z,9.80
2023-04-21T04:53:18.612Z,9.90
2023-04-21T04:55:47.139Z,9.90
2023-04-21T04:58:15.511Z,10.10
2023-04-21T05:00:43.205Z,10.30
2023-04-21T05:03:12.344Z,10.20
2023-04-21T05:05:40.148Z,10.20
2023-04-21T05:08:07.902Z,10.30
2023-04-21T05:10:35.862Z,10.20
2023-04-21T05:13:03.581Z,10.20
2023-04-21T05:15:31.347Z,10.20
2023-04-21T05:17:59.126Z,10.20
2023-04-21T05:20:28.323Z,10.30
2023-04-21T05:22:56.082Z,10.30
2023-04-21T05:25:23.784Z,10.30
2023-04-21T05:27:51.535Z,10.30
2023-04-21T05:30:19.267Z,10.40
2023-04-21T05:32:47.057Z,10.40
2023-04-21T05:35:14.839Z,10.50
2023-04-21T05:37:43.960Z,10.60
2023-04-21T05:40:12.104Z,10.50
2023-04-21T05:42:39.812Z,10.50
2023-04-21T05:45:08.850Z,10.50
2023-04-21T05:47:37.399Z,10.80
2023-04-21T05:50:05.812Z,10.80
2023-04-21T05:52:34.872Z,10.80
2023-04-21T05:55:04.644Z,10.80
2023-04-21T05:57:32.379Z,10.90
2023-04-21T06:00:00.127Z,11.00
2023-04-21T06:02:28.043Z,11.10
2023-04-21T06:04:55.985Z,11.30
2023-04-21T06:07:23.784Z,11.40
2023-04-21T06:09:52.094Z,11.40
2023-04-21T06:12:21.130Z,11.50
2023-04-21T06:14:48.875Z,11.50
2023-04-21T06:17:18.682Z,11.60
2023-04-21T06:19:46.421Z,11.70
2023-04-21T06:22:14.168Z,11.70
2023-04-21T06:24:41.899Z,11.90
2023-04-21T06:27:13.329Z,11.90
2023-04-21T06:29:44.937Z,11.90
2023-04-21T06:32:13.398Z,11.90
2023-04-21T06:34:41.237Z,12.00
2023-04-21T06:37:08.971Z,12.20
2023-04-21T06:39:36.694Z,12.20
2023-04-21T06:42:04.520Z,12.20
2023-04-21T06:44:32.864Z,12.30
2023-04-21T06:47:02.027Z,12.40
2023-04-21T06:49:29.732Z,12.60
2023-04-21T06:51:57.467Z,12.70
2023-04-21T06:54:25.186Z,12.70
2023-04-21T06:56:52.980Z,12.60
2023-04-21T06:59:21.014Z,12.80
2023-04-21T07:01:52.143Z,12.80
2023-04-21T07:04:21.530Z,12.80
2023-04-21T07:06:49.522Z,12.90
2023-04-21T07:09:18.310Z,12.90
2023-04-21T07:11:46.314Z,13.00
2023-04-21T07:14:14.133Z,13.10
2023-04-21T07:16:41.885Z,13.30
2023-04-21T07:19:09.615Z,13.40
2023-04-21T07:21:38.647Z,13.30
2023-04-21T07:24:07.132Z,13.40
2023-04-21T07:26:34.925Z,13.50
2023-04-21T07:29:02.666Z,13.60
2023-04-21T07:31:30.553Z,13.70
2023-04-21T07:33:58.293Z,13.70
2023-04-21T07:36:28.859Z,13.80
2023-04-21T07:38:59.095Z,14.00
2023-04-21T07:41:26.956Z,14.20
2023-04-21T07:43:55.446Z,14.10
2023-04-21T07:46:25.939Z,14.20
2023-04-21T07:48:53.680Z,14.30
2023-04-21T07:51:21.444Z,14.60
2023-04-21T07:53:49.225Z,14.90
2023-04-21T07:56:19.799Z,15.00
2023-04-21T07:58:47.516Z,15.20
2023-04-21T08:01:15.690Z,15.40
2023-04-21T08:03:43.549Z,15.40
2023-04-21T08:06:11.569Z,15.50
2023-04-21T08:08:39.323Z,15.60
2023-04-21T08:11:08.133Z,15.60
2023-04-21T08:13:38.176Z,15.70
2023-04-21T08:16:06.321Z,15.70
2023-04-21T08:18:34.096Z,15.70
2023-04-21T08:21:02.324Z,15.70
2023-04-21T08:23:32.336Z,16.10
2023-04-21T08:26:00.445Z,16.20
2023-04-21T08:28:28.222Z,16.40
2023-04-21T08:30:57.430Z,16.50
2023-04-21T08:33:25.216Z,16.50
2023-04-21T08:36:03.838Z,16.50
2023-04-21T08:38:36.290Z,16.60
2023-04-21T08:41:05.482Z,16.70
2023-04-21T08:43:34.427Z,16.60
2023-04-21T08:46:07.141Z,16.60
2023-04-21T08:48:37.427Z,16.80
2023-04-21T08:51:07.591Z,17.10
2023-04-21T08:53:35.538Z,17.20
2023-04-21T08:58:37.545Z,17.60
2023-04-21T09:01:06.728Z,17.50
2023-04-21T09:03:34.690Z,17.60
2023-04-21T09:06:05.481Z,17.80
2023-04-21T09:08:35.586Z,17.70
2023-04-21T09:11:03.326Z,17.60
2023-04-21T09:13:32.472Z,17.80
2023-04-21T09:16:00.827Z,17.80
2023-04-21T09:18:35.251Z,18.00
2023-04-21T09:21:08.735Z,18.30
2023-04-21T09:23:43.607Z,18.40
2023-04-21T09:26:12.052Z,18.60
2023-04-21T09:28:43.970Z,18.80
2023-04-21T09:31:16.465Z,18.80
2023-04-21T09:33:57.633Z,18.80
2023-04-21T09:36:27.821Z,19.00
2023-04-21T09:39:24.476Z,19.30
2023-04-21T09:41:47.294Z,19.30
2023-04-21T09:44:15.034Z,19.40
2023-04-21T09:46:45.028Z,19.50
2023-04-21T09:49:17.714Z,19.60
2023-04-21T09:54:29.260Z,19.80
2023-04-21T09:57:01.572Z,19.80
2023-04-21T09:59:31.686Z,20.00
2023-04-21T10:02:01.148Z,20.30
2023-04-21T10:04:33.298Z,20.40
2023-04-21T10:07:01.744Z,20.50
2023-04-21T10:09:38.000Z,20.50
2023-04-21T10:12:09.030Z,20.60
2023-04-21T10:14:37.370Z,20.70
2023-04-21T10:17:06.902Z,20.60
2023-04-21T10:19:39.925Z,20.70
2023-04-21T10:22:09.396Z,20.90
2023-04-21T10:24:39.790Z,20.80
2023-04-21T10:27:11.460Z,20.90
2023-04-21T10:29:48.487Z,21.20
2023-04-21T10:32:33.244Z,21.10
2023-04-21T10:35:02.516Z,21.40
2023-04-21T10:37:32.727Z,21.40
2023-04-21T10:40:00.533Z,21.70
2023-04-21T10:42:36.788Z,21.60
2023-04-21T10:45:12.461Z,21.40
2023-04-21T10:47:48.893Z,21.50
2023-04-21T10:50:25.493Z,21.70
2023-04-21T10:52:56.718Z,21.90
2023-04-21T10:55:28.358Z,21.90
2023-04-21T10:57:56.210Z,22.10
2023-04-21T11:00:25.397Z,22.00
2023-04-21T11:02:58.032Z,22.10
2023-04-21T11:05:36.244Z,22.10
2023-04-21T11:08:15.096Z,22.20
2023-04-21T11:10:53.886Z,22.00
2023-04-21T11:13:23.669Z,22.10
2023-04-21T11:16:02.500Z,22.00
2023-04-21T11:18:39.583Z,22.00
2023-04-21T11:21:18.558Z,22.20
2023-04-21T11:23:51.524Z,22.50
2023-04-21T11:26:20.939Z,22.60
2023-04-21T11:28:50.562Z,23.10
2023-04-21T11:31:18.380Z,23.10
2023-04-21T11:33:46.270Z,23.10
2023-04-21T11:36:15.320Z,23.30
2023-04-21T11:38:43.741Z,23.40
2023-04-21T11:41:12.417Z,23.70
2023-04-21T11:43:40.218Z,23.70
2023-04-21T11:46:24.983Z,23.30
2023-04-21T11:49:02.877Z,23.00
2023-04-21T11:51:35.838Z,23.10
2023-04-21T11:54:05.724Z,23.20
2023-04-21T11:56:37.789Z,23.20
2023-04-21T11:59:08.700Z,23.10
2023-04-21T12:01:43.224Z,23.10
2023-04-21T12:04:16.145Z,23.20
2023-04-21T12:06:46.014Z,23.30
2023-04-21T12:09:18.704Z,23.10
2023-04-21T12:11:49.892Z,22.80
2023-04-21T12:14:18.862Z,23.00
2023-04-21T12:16:50.168Z,23.40
2023-04-21T12:19:23.915Z,23.70
2023-04-21T12:21:56.677Z,23.60
2023-04-21T12:24:24.523Z,23.30
2023-04-21T12:26:52.273Z,23.20
2023-04-21T12:29:20.058Z,23.30
2023-04-21T12:31:47.874Z,23.50
2023-04-21T12:34:16.147Z,23.40
2023-04-21T12:36:44.179Z,23.10
2023-04-21T12:39:13.439Z,23.10
2023-04-21T12:41:41.369Z,23.00
2023-04-21T12:44:09.145Z,23.00
2023-04-21T12:46:36.980Z,23.20
2023-04-21T12:49:07.481Z,23.30
2023-04-21T12:51:35.446Z,23.20
2023-04-21T12:54:03.380Z,23.20
2023-04-21T12:56:32.539Z,23.10
2023-04-21T12:59:00.641Z,23.20
2023-04-21T13:01:28.510Z,23.20
2023-04-21T13:03:56.550Z,23.40
2023-04-21T13:06:24.400Z,23.00
2023-04-21T13:08:52.171Z,23.20
2023-04-21T13:11:20.063Z,23.20
2023-04-21T13:13:49.140Z,23.20
2023-04-21T13:16:18.041Z,23.10
2023-04-21T13:18:46.999Z,23.00
2023-04-21T13:21:14.929Z,22.90
2023-04-21T13:23:43.036Z,23.10
2023-04-21T13:26:10.869Z,23.20
2023-04-21T13:28:38.952Z,23.50
2023-04-21T13:31:08.122Z,23.40
2023-04-21T13:33:36.242Z,23.50
2023-04-21T13:36:04.803Z,23.60
2023-04-21T13:38:33.686Z,23.80
2023-04-21T13:41:01.500Z,23.70
2023-04-21T13:43:29.395Z,23.70
2023-04-21T13:45:57.977Z,23.50
2023-04-21T13:48:28.900Z,23.50
2023-04-21T13:50:56.705Z,23.70
2023-04-21T13:53:24.505Z,23.70
2023-04-21T13:55:52.915Z,23.60
2023-04-21T13:58:20.914Z,23.60
2023-04-21T14:00:48.687Z,23.30
2023-04-21T14:03:16.683Z,23.50
2023-04-21T14:05:45.959Z,23.40
2023-04-21T14:08:13.957Z,23.20
2023-04-21T14:10:41.715Z,23.30
2023-04-21T14:13:12.835Z,23.00
2023-04-21T14:15:45.349Z,23.00
2023-04-21T14:18:13.255Z,23.20
2023-04-21T14:20:41.289Z,23.50
2023-04-21T14:23:10.566Z,23.50
2023-04-21T14:25:38.371Z,23.30
2023-04-21T14:28:07.356Z,23.40
2023-04-21T14:30:36.212Z,23.40
2023-04-21T14:33:04.215Z,23.60
2023-04-21T14:35:32.077Z,23.50
2023-04-21T14:38:00.026Z,23.50
2023-04-21T14:40:29.357Z,23.70
2023-04-21T14:42:57.127Z,23.60
2023-04-21T14:45:28.000Z,23.50
2023-04-21T14:47:56.164Z,23.60
2023-04-21T14:50:24.126Z,23.70
2023-04-21T14:52:51.904Z,23.70
2023-04-21T14:55:19.876Z,23.30
2023-04-21T14:57:49.063Z,23.30
2023-04-21T15:00:17.584Z,23.30
2023-04-21T15:02:45.437Z,23.40
2023-04-21T15:05:13.245Z,23.50
2023-04-21T15:07:41.851Z,23.50
2023-04-21T15:10:11.016Z,23.30
2023-04-21T15:12:39.453Z,23.40
2023-04-21T15:15:09.701Z,23.20
2023-04-21T15:17:37.629Z,23.00
2023-04-21T15:20:06.346Z,22.80
2023-04-21T15:22:34.146Z,22.90
2023-04-21T15:25:01.922Z,22.90
2023-04-21T15:27:30.119Z,23.00
2023-04-21T15:29:58.205Z,23.10
2023-04-21T15:32:27.435Z,23.40
2023-04-21T15:34:55.278Z,23.40
2023-04-21T15:37:25.631Z,23.30
2023-04-21T15:39:53.845Z,23.10
2023-04-21T15:42:21.777Z,22.90
2023-04-21T15:44:49.560Z,22.90
2023-04-21T15:47:17.316Z,23.10
2023-04-21T15:49:46.488Z,23.30
2023-04-21T15:52:14.385Z,23.30
2023-04-21T15:54:42.110Z,23.40
2023-04-21T15:57:09.836Z,23.30
2023-04-21T15:59:37.564Z,23.10
2023-04-21T16:02:05.643Z,23.00
2023-04-21T16:04:33.697Z,23.00
2023-04-21T16:07:02.987Z,22.90
2023-04-21T16:09:30.795Z,22.80
2023-04-21T16:11:58.540Z,22.90
2023-04-21T16:14:26.419Z,22.90
2023-04-21T16:16:54.172Z,22.80
2023-04-21T16:19:21.937Z,22.60
2023-04-21T16:21:49.697Z,22.50
2023-04-21T16:24:18.901Z,22.40
2023-04-21T16:26:46.654Z,22.50
2023-04-21T16:29:14.457Z,22.50
2023-04-21T16:31:45.238Z,22.30
2023-04-21T16:34:13.792Z,22.30
2023-04-21T16:36:41.586Z,22.30
2023-04-21T16:39:09.397Z,22.30
2023-04-21T16:41:38.470Z,22.30
2023-04-21T16:44:06.224Z,22.30
2023-04-21T16:46:34.423Z,22.20
2023-04-21T16:49:02.262Z,21.90
2023-04-21T16:51:29.997Z,21.80
2023-04-21T16:53:57.786Z,21.70
2023-04-21T16:56:25.528Z,22.00
2023-04-21T16:58:54.792Z,22.10
2023-04-21T17:01:22.604Z,22.20
2023-04-21T17:03:50.660Z,22.10
2023-04-21T17:06:20.965Z,22.10
2023-04-21T17:08:48.898Z,22.10
2023-04-21T17:11:16.722Z,22.10
2023-04-21T17:13:44.451Z,22.10
2023-04-21T17:16:13.651Z,21.90
2023-04-21T17:18:41.432Z,21.90
2023-04-21T17:21:09.134Z,21.70
2023-04-21T17:23:36.913Z,21.60
2023-04-21T17:26:05.064Z,21.40
2023-04-21T17:28:33.476Z,21.40
2023-04-21T17:31:13.670Z,21.20
2023-04-21T17:33:43.448Z,21.30
2023-04-21T17:36:11.303Z,21.20
2023-04-21T17:38:39.660Z,21.30
2023-04-21T17:41:08.426Z,21.10
2023-04-21T17:43:36.168Z,21.00
2023-04-21T17:46:03.998Z,20.90
2023-04-21T17:48:31.785Z,20.80
2023-04-21T17:51:00.844Z,20.70
2023-04-21T17:53:28.602Z,20.70
2023-04-21T17:55:56.540Z,20.40
2023-04-21T17:58:24.378Z,20.30
2023-04-21T18:00:52.242Z,20.20
2023-04-21T18:03:20.131Z,20.10
2023-04-21T18:05:48.007Z,20.00
2023-04-21T18:08:17.187Z,20.00
2023-04-21T18:10:44.908Z,20.10
2023-04-21T18:13:12.612Z,20.00
2023-04-21T18:15:40.960Z,20.00
2023-04-21T18:18:09.274Z,19.80
2023-04-21T18:20:37.446Z,19.60
2023-04-21T18:23:05.322Z,19.30
2023-04-21T18:25:41.433Z,19.10
2023-04-21T18:28:12.395Z,19.10
2023-04-21T18:30:40.400Z,19.00
2023-04-21T18:33:08.235Z,18.80
2023-04-21T18:35:36.286Z,18.60
2023-04-21T18:38:05.757Z,18.60
2023-04-21T18:40:36.992Z,18.60
2023-04-21T18:43:05.212Z,18.80
2023-04-21T18:45:33.544Z,18.80
2023-04-21T18:48:01.337Z,18.80
2023-04-21T18:50:29.627Z,18.60
2023-04-21T18:52:58.042Z,18.50
2023-04-21T18:55:25.791Z,18.50
2023-04-21T18:57:54.828Z,18.50
2023-04-21T19:00:22.726Z,18.50
2023-04-21T19:02:51.225Z,18.50
2023-04-21T19:05:19.279Z,18.50
2023-04-21T19:07:47.313Z,18.30
2023-04-21T19:10:15.069Z,18.20
2023-04-21T19:12:42.799Z,18.20
2023-04-21T19:15:12.437Z,18.10
2023-04-21T19:17:41.121Z,18.00
2023-04-21T19:20:10.290Z,17.80
2023-04-21T19:22:38.007Z,17.80
2023-04-21T19:25:07.066Z,17.80
2023-04-21T19:27:34.809Z,18.00
2023-04-21T19:30:02.607Z,17.70
2023-04-21T19:32:31.843Z,17.80
2023-04-21T19:35:02.596Z,17.70
2023-04-21T19:37:34.472Z,17.70
2023-04-21T19:40:03.175Z,17.50
2023-04-21T19:42:31.670Z,17.40
2023-04-21T19:44:59.471Z,17.30
2023-04-21T19:47:27.372Z,17.40
2023-04-21T19:49:56.512Z,17.30
2023-04-21T19:52:24.383Z,17.10
2023-04-21T19:54:52.332Z,17.20
2023-04-21T19:57:20.041Z,17.20
2023-04-21T19:59:49.006Z,17.00
2023-04-21T20:02:17.028Z,17.00
2023-04-21T20:04:44.987Z,16.90
2023-04-21T20:07:14.146Z,16.90
2023-04-21T20:09:41.831Z,16.90
2023-04-21T20:12:09.726Z,16.90
2023-04-21T20:14:38.762Z,16.80
2023-04-21T20:17:06.543Z,16.80
2023-04-21T20:19:35.554Z,16.70
2023-04-21T20:22:03.787Z,16.80
2023-04-21T20:24:32.920Z,16.80
2023-04-21T20:27:00.895Z,16.60
2023-04-21T20:29:30.962Z,16.60
2023-04-21T20:31:58.715Z,16.60
2023-04-21T20:34:26.700Z,16.60
2023-04-21T20:36:55.573Z,16.50
2023-04-21T20:39:24.894Z,16.60
2023-04-21T20:42:08.777Z,16.40
2023-04-21T20:44:41.168Z,16.40
2023-04-21T20:47:08.985Z,16.40
2023-04-21T20:49:36.950Z,16.40
2023-04-21T20:52:04.854Z,16.40
2023-04-21T20:54:34.501Z,16.40
2023-04-21T20:57:03.742Z,16.30
2023-04-21T20:59:31.541Z,16.30
2023-04-21T21:01:59.250Z,16.40
2023-04-21T21:04:27.124Z,16.50
2023-04-21T21:06:55.020Z,16.40
2023-04-21T21:09:22.793Z,16.40
2023-04-21T21:11:50.527Z,16.30
2023-04-21T21:14:19.663Z,16.30
2023-04-21T21:16:47.448Z,16.30
2023-04-21T21:19:15.333Z,16.30
2023-04-21T21:21:43.183Z,16.40
2023-04-21T21:24:11.476Z,16.20
2023-04-21T21:26:42.552Z,16.30
2023-04-21T21:29:10.673Z,16.20
2023-04-21T21:31:39.749Z,16.00
2023-04-21T21:34:07.542Z,16.00
2023-04-21T21:36:36.021Z,16.10
2023-04-21T21:39:03.739Z,16.00
2023-04-21T21:41:31.460Z,16.00
2023-04-21T21:43:59.361Z,16.20
2023-04-21T21:46:27.133Z,16.00
2023-04-21T21:48:56.219Z,15.70
2023-04-21T21:51:23.960Z,15.70
2023-04-21T21:53:51.656Z,15.50
2023-04-21T21:56:19.432Z,15.30
2023-04-21T21:58:47.325Z,15.30
2023-04-21T22:01:17.949Z,15.30
2023-04-21T22:03:47.124Z,15.40
2023-04-21T22:06:17.447Z,15.50
2023-04-21T22:08:45.711Z,15.40
2023-04-21T22:11:13.486Z,15.30
2023-04-21T22:13:41.876Z,15.30
2023-04-21T22:16:09.638Z,15.30
2023-04-21T22:18:37.626Z,15.40
2023-04-21T22:21:05.671Z,15.30
2023-04-21T22:23:34.812Z,15.30
2023-04-21T22:26:02.605Z,15.30
2023-04-21T22:28:30.438Z,15.20
2023-04-21T22:30:58.233Z,15.10
2023-04-21T22:33:26.030Z,15.00
2023-04-21T22:35:53.739Z,14.80
2023-04-21T22:38:21.736Z,14.70
2023-04-21T22:40:50.796Z,14.70
2023-04-21T22:43:18.525Z,14.80
2023-04-21T22:45:46.271Z,14.60
2023-04-21T22:48:14.762Z,14.50
2023-04-21T22:50:44.164Z,14.50
2023-04-21T22:53:13.254Z,14.50
2023-04-21T22:55:41.105Z,14.50
2023-04-21T22:58:10.431Z,14.60
2023-04-21T23:00:38.298Z,14.60
2023-04-21T23:03:06.185Z,14.60
2023-04-21T23:05:34.125Z,14.60
2023-04-21T23:08:01.821Z,14.60
2023-04-21T23:10:29.981Z,14.50
2023-04-21T23:12:57.849Z,14.40
2023-04-21T23:15:27.627Z,14.40
2023-04-21T23:17:55.366Z,14.30
2023-04-21T23:20:23.133Z,14.30
2023-04-21T23:22:51.004Z,14.30
2023-04-21T23:25:18.917Z,14.30
2023-04-21T23:27:46.625Z,14.30
2023-04-21T23:30:14.647Z,14.30
2023-04-21T23:32:43.836Z,14.30
2023-04-21T23:35:11.679Z,14.10
2023-04-21T23:37:39.423Z,13.90
2023-04-21T23:40:11.016Z,13.60
2023-04-21T23:42:38.942Z,13.50
2023-04-21T23:45:07.846Z,13.50
2023-04-21T23:47:35.886Z,13.50
2023-04-21T23:50:05.630Z,13.60
2023-04-21T23:52:33.997Z,13.60
2023-04-21T23:55:01.711Z,13.70
2023-04-21T23:57:29.465Z,13.70
2023-04-21T23:59:57.167Z,13.70
